La Molina, Catalunya

latitud = 42° 19' 57''N | longitud = 001° 56' 22''E
1703 metros sobre el nivel del mar | datos mensuales

Fecha, hora, temperatura, viento dirección y velocidad, humedad y presión.

  • 16-08-2018 02:00:00 | 11.80°C | Calma |0.00 km/h | 91.00% | 835.10 hPa
  • 16-08-2018 01:00:00 | 12.20°C | Calma |0.00 km/h | 90.00% | 835.40 hPa
  • 16-08-2018 00:00:00 | 12.50°C | Calma |0.00 km/h | 89.00% | 835.40 hPa
  • 15-08-2018 23:00:00 | 12.90°C | Calma |0.00 km/h | 88.00% | 835.30 hPa
  • 15-08-2018 22:00:00 | 14.50°C | Este |2.00 km/h | 80.00% | 835.20 hPa
  • 15-08-2018 21:00:00 | 16.00°C | Calma |0.00 km/h | 74.00% | 835.00 hPa
  • 15-08-2018 20:00:00 | 18.30°C | Calma |0.00 km/h | 65.00% | 834.90 hPa
  • 15-08-2018 19:00:00 | 18.50°C | Calma |0.00 km/h | 65.00% | 834.90 hPa
  • 15-08-2018 18:00:00 | 20.60°C | Calma |0.00 km/h | 63.00% | 834.90 hPa
  • 15-08-2018 17:00:00 | 21.30°C | Calma |0.00 km/h | 56.00% | 835.00 hPa
  • 15-08-2018 16:00:00 | 21.20°C | Calma |0.00 km/h | 59.00% | 835.10 hPa
  • 15-08-2018 15:00:00 | 21.00°C | Calma |0.00 km/h | 55.00% | 835.20 hPa
  • 15-08-2018 14:00:00 | 21.00°C | Norte |6.00 km/h | 36.00% | 835.30 hPa
  • 15-08-2018 13:00:00 | 20.20°C | Calma |0.00 km/h | 34.00% | 835.40 hPa
  • 15-08-2018 12:00:00 | 19.10°C | Calma |0.00 km/h | 28.00% | 835.60 hPa
  • 15-08-2018 11:00:00 | 16.90°C | Noroeste |8.00 km/h | 36.00% | 835.60 hPa
  • 15-08-2018 10:00:00 | 15.50°C | Sur |3.00 km/h | 52.00% | 835.50 hPa
  • 15-08-2018 09:00:00 | 10.40°C | Calma |0.00 km/h | 68.00% | 835.50 hPa
  • 15-08-2018 08:00:00 | 7.60°C | Calma |0.00 km/h | 74.00% | 835.30 hPa
  • 15-08-2018 07:00:00 | 7.80°C | Calma |0.00 km/h | 75.00% | 835.40 hPa
  • 15-08-2018 06:00:00 | 7.00°C | Calma |0.00 km/h | 82.00% | 835.50 hPa
  • 15-08-2018 05:00:00 | 7.10°C | Calma |0.00 km/h | 85.00% | 835.50 hPa
  • 15-08-2018 04:00:00 | 8.00°C | Calma |0.00 km/h | 82.00% | 835.50 hPa
  • 15-08-2018 03:00:00 | 8.20°C | Calma |0.00 km/h | 78.00% | 835.50 hPa